Time;durP1;ratioP1;P1;durP2;ratioP2;P2;SDS_P1;SDS_P2;PMS_P1;PMS_P2;Temp;Humidity;BMP_temperature;BMP_pressure;BME280_temperature;BME280_humidity;BME280_pressure;Samples;Min_cycle;Max_cycle;Signal;HPM_P1;HPM_P2
2022/12/02 00:01:02;;;;;;;34.37;15.23;;;5.40;1.00;;;;;;5074847;28;20523;-76
2022/12/02 00:03:34;;;;;;;43.67;15.63;;;5.40;1.00;;;;;;5075072;28;20412;-76
2022/12/02 00:06:14;;;;;;;39.60;16.37;;;5.40;1.00;;;;;;5081541;28;20417;-85
2022/12/02 00:09:02;;;;;;;36.47;15.77;;;5.40;1.00;;;;;;5091289;28;20456;-86
2022/12/02 00:11:31;;;;;;;33.77;14.83;;;5.40;1.00;;;;;;5080701;28;20958;-85
2022/12/02 00:14:21;;;;;;;30.03;14.50;;;5.40;1.00;;;;;;5085438;28;20423;-86
2022/12/02 00:20:25;;;;;;;40.53;15.67;;;5.40;1.00;;;;;;5084471;28;20395;-85
2022/12/02 00:23:37;;;;;;;33.97;15.17;;;5.30;1.00;;;;;;5074845;28;20425;-86
2022/12/02 00:26:37;;;;;;;35.10;15.80;;;5.30;1.00;;;;;;5072426;28;20437;-86
2022/12/02 00:32:25;;;;;;;35.20;15.80;;;5.20;1.00;;;;;;5078695;28;20443;-85
2022/12/02 00:35:43;;;;;;;39.63;15.73;;;5.20;1.00;;;;;;5091734;28;20416;-86
2022/12/02 00:38:49;;;;;;;33.07;15.67;;;5.20;1.00;;;;;;5092823;28;20197;-86
2022/12/02 00:50:42;;;;;;;35.27;15.10;;;5.10;1.00;;;;;;5078473;28;20391;-85
2022/12/02 00:53:37;;;;;;;35.40;15.20;;;5.00;1.00;;;;;;5084599;28;20432;-86
2022/12/02 00:56:43;;;;;;;35.17;15.50;;;5.00;1.00;;;;;;5083271;28;20183;-85
2022/12/02 00:59:25;;;;;;;34.40;15.47;;;5.00;1.00;;;;;;5086019;28;20435;-85
2022/12/02 01:02:16;;;;;;;36.33;15.73;;;5.00;1.00;;;;;;5095303;28;20450;-85
2022/12/02 01:08:37;;;;;;;36.10;15.30;;;5.00;1.00;;;;;;5083708;28;20514;-85
2022/12/02 01:18:43;;;;;;;46.93;15.80;;;4.80;1.00;;;;;;5079759;28;20416;-85
2022/12/02 01:27:52;;;;;;;41.33;15.97;;;4.70;1.00;;;;;;5076847;28;20467;-85
2022/12/02 01:30:49;;;;;;;35.13;15.50;;;4.70;1.00;;;;;;5084627;28;20433;-85
2022/12/02 01:33:43;;;;;;;37.77;14.80;;;4.70;1.00;;;;;;5079976;28;20244;-85
2022/12/02 01:40:02;;;;;;;39.22;16.10;;;4.70;1.00;;;;;;5088566;28;20428;-76
2022/12/02 01:43:01;;;;;;;38.75;15.45;;;4.70;1.00;;;;;;5095355;28;20185;-76
2022/12/02 01:46:01;;;;;;;36.23;16.60;;;4.70;1.00;;;;;;5085811;28;20539;-77
2022/12/02 01:51:55;;;;;;;39.80;16.55;;;4.70;1.00;;;;;;5085090;28;20190;-77
2022/12/02 01:54:21;;;;;;;33.00;15.40;;;4.70;1.00;;;;;;5084502;28;20191;-76
2022/12/02 01:57:14;;;;;;;36.87;15.67;;;4.80;1.00;;;;;;5086002;28;20435;-76
2022/12/02 01:59:43;;;;;;;40.60;17.43;;;4.80;1.00;;;;;;5089071;28;20628;-77
2022/12/02 02:02:38;;;;;;;39.20;15.80;;;4.80;1.00;;;;;;5075989;28;20409;-77
2022/12/02 02:11:47;;;;;;;39.07;16.80;;;4.90;1.00;;;;;;5087055;28;20747;-76
2022/12/02 02:14:13;;;;;;;39.23;16.57;;;4.90;1.00;;;;;;5090434;28;20424;-77
2022/12/02 02:16:43;;;;;;;32.20;13.97;;;5.00;1.00;;;;;;5083757;28;20178;-76
2022/12/02 02:19:37;;;;;;;41.30;15.70;;;5.00;1.00;;;;;;5084141;28;20670;-76
2022/12/02 02:25:47;;;;;;;40.57;17.30;;;5.10;1.00;;;;;;5076108;28;20815;-77
2022/12/02 02:28:14;;;;;;;31.47;14.67;;;5.10;1.00;;;;;;5075817;28;20460;-77
2022/12/02 02:30:44;;;;;;;39.77;16.40;;;5.20;1.00;;;;;;5076270;28;20429;-77
2022/12/02 02:36:32;;;;;;;37.73;15.53;;;5.20;1.00;;;;;;5079644;28;20458;-76
2022/12/02 02:39:07;;;;;;;37.87;16.60;;;5.20;1.00;;;;;;5083637;28;20787;-85
2022/12/02 02:48:44;;;;;;;41.47;16.80;;;5.20;1.00;;;;;;5088809;28;20461;-85
2022/12/02 02:54:31;;;;;;;40.57;16.50;;;5.30;1.00;;;;;;5088704;28;20396;-86
2022/12/02 02:57:49;;;;;;;42.10;17.63;;;5.30;1.00;;;;;;5078895;28;20421;-86
2022/12/02 03:00:45;;;;;;;41.70;16.87;;;5.30;1.00;;;;;;5078684;28;20220;-85
2022/12/02 03:03:40;;;;;;;44.87;17.40;;;5.20;1.00;;;;;;5076437;28;20486;-85
2022/12/02 03:09:27;;;;;;;43.43;18.60;;;5.30;1.00;;;;;;5079419;28;21733;-86
2022/12/02 03:12:31;;;;;;;42.10;16.37;;;5.30;1.00;;;;;;5080078;28;20421;-86
2022/12/02 03:18:38;;;;;;;36.50;17.13;;;5.30;1.00;;;;;;5080870;28;20453;-85
2022/12/02 03:21:16;;;;;;;36.27;16.80;;;5.30;1.00;;;;;;5077682;28;20420;-85
2022/12/02 03:27:04;;;;;;;40.13;17.70;;;5.20;1.00;;;;;;5086995;28;20520;-86
2022/12/02 03:33:43;;;;;;;44.57;17.50;;;5.30;1.00;;;;;;5079058;28;20503;-86
2022/12/02 03:36:43;;;;;;;46.10;17.60;;;5.30;1.00;;;;;;5080573;28;20439;-86
2022/12/02 03:39:09;;;;;;;36.87;17.10;;;5.30;1.00;;;;;;5074673;28;20444;-77
2022/12/02 03:42:31;;;;;;;46.57;18.30;;;5.30;1.00;;;;;;5074196;28;20483;-76
2022/12/02 03:45:25;;;;;;;40.87;17.67;;;5.20;1.00;;;;;;5086109;28;20425;-76
2022/12/02 03:48:43;;;;;;;40.83;16.70;;;5.10;1.00;;;;;;5072923;28;20514;-77
2022/12/02 03:51:44;;;;;;;37.33;16.47;;;5.10;1.00;;;;;;5073895;28;20738;-77
2022/12/02 03:54:20;;;;;;;39.63;16.27;;;5.10;1.00;;;;;;5079851;28;20412;-86
2022/12/02 03:57:26;;;;;;;44.33;16.80;;;5.10;1.00;;;;;;5081345;28;20939;-86
2022/12/02 04:00:37;;;;;;;37.33;16.10;;;5.00;1.00;;;;;;5081694;28;20528;-85
2022/12/02 04:03:13;;;;;;;38.37;17.33;;;5.00;1.00;;;;;;5073676;28;20451;-86
2022/12/02 04:05:39;;;;;;;33.87;15.33;;;5.00;1.00;;;;;;5076489;28;20420;-85
2022/12/02 04:08:13;;;;;;;37.57;16.83;;;5.00;1.00;;;;;;5080355;28;20472;-78
2022/12/02 04:11:13;;;;;;;40.63;17.00;;;5.00;1.00;;;;;;5080191;28;20629;-76
2022/12/02 04:13:49;;;;;;;38.30;17.97;;;5.00;1.00;;;;;;5090919;28;20419;-77
2022/12/02 04:16:19;;;;;;;36.20;15.67;;;5.00;1.00;;;;;;5080462;28;20802;-77
2022/12/02 04:18:55;;;;;;;35.27;15.90;;;5.00;1.00;;;;;;5074555;28;20885;-77
2022/12/02 04:21:37;;;;;;;32.37;14.67;;;5.10;1.00;;;;;;5073099;28;20776;-77
2022/12/02 04:24:03;;;;;;;40.37;16.83;;;5.00;1.00;;;;;;5082866;28;20445;-76
2022/12/02 04:26:37;;;;;;;39.80;16.90;;;5.00;1.00;;;;;;5084409;28;20428;-76
2022/12/02 04:29:14;;;;;;;37.27;15.77;;;5.00;1.00;;;;;;5079675;28;20669;-76
2022/12/02 04:35:01;;;;;;;43.90;17.00;;;5.10;1.00;;;;;;5080942;28;20209;-77
2022/12/02 04:37:37;;;;;;;39.83;16.90;;;5.10;1.00;;;;;;5087711;28;20409;-76
2022/12/02 04:40:04;;;;;;;41.37;15.50;;;5.00;1.00;;;;;;5080929;28;20196;-77
2022/12/02 04:42:30;;;;;;;36.30;16.57;;;5.00;1.00;;;;;;5085575;28;20978;-76
2022/12/02 04:45:14;;;;;;;35.80;15.73;;;5.00;1.00;;;;;;5088332;28;20555;-76
2022/12/02 04:48:13;;;;;;;42.40;16.37;;;5.10;1.00;;;;;;5087762;28;20216;-77
2022/12/02 04:50:43;;;;;;;36.30;16.30;;;5.10;1.00;;;;;;5083712;28;20450;-76
2022/12/02 04:53:43;;;;;;;38.13;16.87;;;5.10;1.00;;;;;;5092580;28;20922;-76
2022/12/02 04:56:43;;;;;;;40.87;16.53;;;5.10;1.00;;;;;;5081420;28;20503;-85
2022/12/02 04:59:19;;;;;;;41.73;17.03;;;5.10;1.00;;;;;;5093063;28;20443;-86
2022/12/02 05:05:08;;;;;;;43.07;16.20;;;5.00;1.00;;;;;;5076728;28;20965;-85
2022/12/02 05:07:33;;;;;;;37.20;16.40;;;5.00;1.00;;;;;;5088914;28;21135;-86
2022/12/02 05:10:31;;;;;;;43.20;17.37;;;5.00;1.00;;;;;;5086214;28;20419;-85
2022/12/02 05:13:01;;;;;;;46.50;16.75;;;5.00;1.00;;;;;;5083690;28;20212;-86
2022/12/02 05:16:13;;;;;;;34.83;14.40;;;5.00;1.00;;;;;;5082452;28;20187;-85
2022/12/02 05:18:43;;;;;;;37.30;16.60;;;5.00;1.00;;;;;;5081444;28;20429;-85
2022/12/02 05:21:13;;;;;;;36.23;15.73;;;5.00;1.00;;;;;;5075553;28;20453;-86
2022/12/02 05:23:46;;;;;;;33.73;15.27;;;5.00;1.00;;;;;;5075447;28;20524;-86
2022/12/02 05:26:13;;;;;;;32.07;14.93;;;5.00;1.00;;;;;;5076663;28;20421;-86
2022/12/02 05:28:43;;;;;;;36.93;16.10;;;5.00;1.00;;;;;;5084768;28;20933;-83
2022/12/02 05:31:09;;;;;;;36.00;17.30;;;5.10;1.00;;;;;;5083330;28;20445;-86
2022/12/02 05:33:35;;;;;;;36.00;15.13;;;5.10;1.00;;;;;;5079842;28;20788;-71
2022/12/02 05:36:00;;;;;;;30.53;13.90;;;5.20;1.00;;;;;;5079783;28;20167;-72
2022/12/02 05:38:31;;;;;;;41.13;15.60;;;5.20;1.00;;;;;;5084629;28;20522;-71
2022/12/02 05:40:57;;;;;;;28.60;13.67;;;5.20;1.00;;;;;;5078351;28;20239;-72
2022/12/02 05:43:25;;;;;;;37.63;16.13;;;5.10;1.00;;;;;;5078436;28;20904;-71
2022/12/02 05:45:57;;;;;;;26.73;14.27;;;5.20;1.00;;;;;;5078954;28;20266;-71
2022/12/02 05:48:24;;;;;;;27.03;14.30;;;5.10;1.00;;;;;;5078549;28;20536;-70
2022/12/02 05:50:52;;;;;;;28.60;13.60;;;5.00;1.00;;;;;;5079695;28;20433;-70
2022/12/02 05:53:23;;;;;;;27.57;13.97;;;5.00;1.00;;;;;;5081390;28;20942;-70
2022/12/02 05:55:51;;;;;;;28.47;13.97;;;4.90;1.00;;;;;;5079720;28;20427;-71
2022/12/02 05:58:18;;;;;;;36.00;14.37;;;4.90;1.00;;;;;;5088321;28;20503;-71
2022/12/02 06:01:19;;;;;;;27.17;12.97;;;4.80;1.00;;;;;;5076809;28;20456;-72
2022/12/02 06:04:02;;;;;;;29.50;13.40;;;4.80;1.00;;;;;;5029319;28;20500;-72
2022/12/02 06:06:32;;;;;;;33.90;14.50;;;4.80;1.00;;;;;;5033009;28;20749;-71
2022/12/02 06:09:02;;;;;;;28.35;13.70;;;4.70;1.00;;;;;;5025502;28;20963;-71
2022/12/02 06:11:33;;;;;;;31.53;14.57;;;4.70;1.00;;;;;;5026547;28;20191;-71
2022/12/02 06:14:02;;;;;;;27.60;13.40;;;4.60;1.00;;;;;;5021159;28;20803;-71
2022/12/02 06:16:30;;;;;;;31.33;14.70;;;4.60;1.00;;;;;;5032210;28;20431;-70
2022/12/02 06:18:58;;;;;;;30.57;14.97;;;4.60;1.00;;;;;;5025503;28;20437;-71
2022/12/02 06:21:32;;;;;;;27.20;13.50;;;4.50;1.00;;;;;;5031271;28;20455;-73
2022/12/02 06:23:59;;;;;;;30.10;14.30;;;4.50;1.00;;;;;;5028942;28;20534;-70
2022/12/02 06:26:38;;;;;;;31.00;14.90;;;4.50;1.00;;;;;;5025904;28;20434;-71
2022/12/02 06:29:04;;;;;;;30.23;14.40;;;4.50;1.00;;;;;;5027076;28;20567;-71
2022/12/02 06:31:44;;;;;;;27.40;13.73;;;4.50;1.00;;;;;;5026626;28;20588;-71
2022/12/02 06:34:40;;;;;;;29.13;15.10;;;4.50;1.00;;;;;;5032294;28;21032;-71
2022/12/02 06:37:14;;;;;;;28.90;13.70;;;4.60;1.00;;;;;;5025181;28;20527;-72
2022/12/02 06:39:41;;;;;;;26.20;13.13;;;4.50;1.00;;;;;;5037953;28;20473;-70
2022/12/02 06:42:19;;;;;;;25.70;14.00;;;4.50;1.00;;;;;;5087081;28;20435;-72
2022/12/02 06:45:03;;;;;;;30.67;14.47;;;4.40;1.00;;;;;;5084699;28;20432;-71
2022/12/02 06:47:32;;;;;;;31.57;13.77;;;4.40;1.00;;;;;;5081596;28;20508;-71
2022/12/02 06:50:33;;;;;;;28.27;14.70;;;4.50;1.00;;;;;;5076306;28;20447;-71
2022/12/02 06:53:20;;;;;;;31.53;15.20;;;4.50;1.00;;;;;;5077710;28;20431;-71
2022/12/02 06:55:49;;;;;;;28.87;14.23;;;4.50;1.00;;;;;;5082502;28;20420;-70
2022/12/02 06:58:36;;;;;;;26.77;12.90;;;4.50;1.00;;;;;;5079407;28;20443;-71
2022/12/02 07:01:15;;;;;;;29.23;14.77;;;4.60;1.00;;;;;;5081854;28;20950;-71
2022/12/02 07:04:10;;;;;;;26.30;13.87;;;4.50;1.00;;;;;;5076887;28;20796;-71
2022/12/02 07:06:41;;;;;;;26.10;13.30;;;4.50;1.00;;;;;;5075571;28;20523;-70
2022/12/02 07:09:42;;;;;;;31.10;13.97;;;4.50;1.00;;;;;;5085180;28;20793;-71
2022/12/02 07:12:22;;;;;;;25.67;13.40;;;4.50;1.00;;;;;;4993513;28;20444;-71
2022/12/02 07:14:54;;;;;;;25.60;12.47;;;4.40;1.00;;;;;;4997446;28;20435;-71
2022/12/02 07:17:50;;;;;;;27.20;13.17;;;4.30;1.00;;;;;;4997696;28;20436;-78
2022/12/02 07:23:44;;;;;;;23.50;12.57;;;4.30;1.00;;;;;;4999611;28;20192;-78
2022/12/02 07:29:31;;;;;;;25.97;13.10;;;4.30;1.00;;;;;;4993019;28;20864;-84
2022/12/02 07:35:19;;;;;;;23.30;12.10;;;4.20;1.00;;;;;;4997569;28;20464;-83
2022/12/02 07:38:19;;;;;;;28.53;13.43;;;4.20;1.00;;;;;;5010936;28;20439;-85
2022/12/02 07:40:56;;;;;;;21.80;11.23;;;4.20;1.00;;;;;;5011085;28;20181;-85
2022/12/02 07:43:55;;;;;;;26.08;11.90;;;4.30;1.00;;;;;;5009529;28;20458;-85
2022/12/02 08:00:04;;;;;;;25.10;13.20;;;4.40;1.00;;;;;;5074700;28;20181;-86
2022/12/02 08:02:44;;;;;;;22.17;11.67;;;4.40;1.00;;;;;;5074541;28;20405;-85
2022/12/02 08:05:14;;;;;;;23.33;12.65;;;4.40;1.00;;;;;;5093847;28;20973;-86
2022/12/02 08:08:19;;;;;;;24.60;13.23;;;4.40;1.00;;;;;;5090582;28;20259;-85
2022/12/02 08:20:51;;;;;;;21.00;10.93;;;4.30;1.00;;;;;;5079794;28;20202;-84
2022/12/02 08:24:07;;;;;;;26.67;11.70;;;4.30;1.00;;;;;;5084070;28;20437;-81
2022/12/02 08:30:16;;;;;;;23.47;13.13;;;4.30;1.00;;;;;;5100016;28;20523;-78
2022/12/02 08:32:42;;;;;;;22.35;12.00;;;4.30;1.00;;;;;;5099959;28;20818;-77
2022/12/02 08:35:08;;;;;;;26.03;12.10;;;4.30;1.00;;;;;;5079493;28;20182;-77
2022/12/02 08:45:07;;;;;;;20.67;11.70;;;4.30;1.00;;;;;;5086129;28;20411;-86
2022/12/02 08:51:49;;;;;;;22.98;12.45;;;4.30;1.00;;;;;;5096518;28;20683;-86
2022/12/02 08:57:37;;;;;;;21.50;12.13;;;4.40;1.00;;;;;;5083037;28;20407;-86
2022/12/02 09:00:49;;;;;;;23.87;12.10;;;4.40;1.00;;;;;;5090808;28;20549;-86
2022/12/02 09:03:55;;;;;;;19.57;11.77;;;4.50;1.00;;;;;;5088995;28;20189;-86
2022/12/02 09:07:13;;;;;;;22.37;12.17;;;4.60;1.00;;;;;;5093691;28;20505;-86
2022/12/02 09:13:08;;;;;;;23.47;12.80;;;4.60;1.00;;;;;;5094664;28;20414;-86
2022/12/02 09:19:08;;;;;;;20.40;11.93;;;4.70;1.00;;;;;;5091825;28;20459;-86
2022/12/02 09:22:13;;;;;;;21.47;12.17;;;4.70;1.00;;;;;;5081831;28;20412;-86
2022/12/02 09:28:43;;;;;;;22.70;12.73;;;4.60;1.00;;;;;;5081377;28;20494;-86
2022/12/02 09:31:09;;;;;;;20.60;11.87;;;4.60;1.00;;;;;;5102098;28;20441;-86
2022/12/02 09:33:44;;;;;;;21.73;11.20;;;4.60;1.00;;;;;;5076557;28;20491;-86
2022/12/02 09:36:10;;;;;;;20.35;11.38;;;4.60;1.00;;;;;;5079724;28;20830;-86
2022/12/02 09:38:50;;;;;;;20.63;11.53;;;4.70;1.00;;;;;;5081774;28;20190;-86
2022/12/02 09:41:20;;;;;;;17.87;11.23;;;4.70;1.00;;;;;;5085175;28;20178;-81
2022/12/02 09:43:46;;;;;;;18.30;10.73;;;4.70;1.00;;;;;;5076444;28;20409;-86
2022/12/02 09:59:40;;;;;;;20.90;11.73;;;4.80;1.00;;;;;;5074986;28;20400;-77
2022/12/02 10:05:28;;;;;;;20.17;11.03;;;4.70;1.00;;;;;;5081719;28;20181;-77
2022/12/02 10:08:18;;;;;;;20.73;12.17;;;4.70;1.00;;;;;;5083387;28;20971;-78
2022/12/02 10:10:44;;;;;;;18.97;10.97;;;4.70;1.00;;;;;;5083035;28;20413;-77
2022/12/02 10:13:50;;;;;;;19.13;10.83;;;4.90;1.00;;;;;;5095685;28;20495;-78
2022/12/02 10:16:27;;;;;;;18.97;12.20;;;4.70;1.00;;;;;;5094887;28;20407;-78
2022/12/02 10:22:17;;;;;;;20.13;11.43;;;4.70;1.00;;;;;;5079233;28;20973;-77
2022/12/02 10:25:25;;;;;;;19.90;12.10;;;4.70;1.00;;;;;;5081696;28;20444;-77
2022/12/02 10:28:43;;;;;;;22.07;11.90;;;4.70;1.00;;;;;;5082460;28;20471;-77
2022/12/02 10:44:43;;;;;;;18.57;10.87;;;4.70;1.00;;;;;;5076431;28;20384;-81
2022/12/02 10:47:20;;;;;;;19.43;11.40;;;4.80;1.00;;;;;;5085695;28;20420;-86
2022/12/02 10:50:23;;;;;;;20.77;11.47;;;4.80;1.00;;;;;;5092013;28;20412;-87
2022/12/02 10:56:17;;;;;;;24.40;11.57;;;4.80;1.00;;;;;;5074695;28;20399;-86
2022/12/02 10:59:11;;;;;;;20.30;12.00;;;4.90;1.00;;;;;;5077236;28;20428;-77
2022/12/02 11:01:46;;;;;;;18.43;10.80;;;4.90;1.00;;;;;;5078211;28;20938;-76
2022/12/02 11:04:33;;;;;;;16.43;10.10;;;5.50;1.00;;;;;;5089843;28;20419;-76
2022/12/02 11:07:51;;;;;;;18.80;10.37;;;6.10;1.00;;;;;;5080654;28;20396;-76
2022/12/02 11:14:27;;;;;;;16.47;9.40;;;7.00;1.00;;;;;;5080887;28;20423;-86
2022/12/02 11:17:15;;;;;;;14.67;9.17;;;6.90;1.00;;;;;;5085782;28;20432;-87
2022/12/02 11:20:21;;;;;;;18.20;9.60;;;6.80;1.00;;;;;;5073470;28;20421;-86
2022/12/02 11:23:16;;;;;;;14.57;9.67;;;6.70;1.00;;;;;;5078003;28;20421;-84
2022/12/02 11:29:15;;;;;;;16.23;10.30;;;6.30;1.00;;;;;;5074339;28;20484;-85
2022/12/02 11:38:26;;;;;;;17.70;9.93;;;5.70;1.00;;;;;;5084896;28;20477;-85
2022/12/02 11:40:51;;;;;;;22.20;9.77;;;5.70;1.00;;;;;;5079282;28;20856;-85
2022/12/02 11:43:40;;;;;;;17.30;9.80;;;5.70;1.00;;;;;;5078645;28;20432;-85
2022/12/02 11:49:39;;;;;;;15.77;10.00;;;5.40;1.00;;;;;;5078970;28;20460;-85
2022/12/02 11:52:19;;;;;;;16.87;9.90;;;5.20;1.00;;;;;;5080615;28;20775;-83
2022/12/02 11:58:21;;;;;;;17.23;9.97;;;5.10;1.00;;;;;;5073692;28;20436;-79
2022/12/02 12:01:33;;;;;;;18.53;10.70;;;5.10;1.00;;;;;;5080050;28;20422;-78
2022/12/02 12:04:23;;;;;;;20.77;10.50;;;5.00;1.00;;;;;;5076876;28;20966;-78
2022/12/02 12:07:03;;;;;;;19.10;11.23;;;5.00;1.00;;;;;;5072720;28;20421;-77
2022/12/02 12:16:21;;;;;;;17.30;11.10;;;5.10;1.00;;;;;;5086812;28;20439;-85
2022/12/02 12:22:29;;;;;;;17.53;11.30;;;5.30;1.00;;;;;;5080130;28;20436;-85
2022/12/02 12:28:31;;;;;;;18.90;10.60;;;5.30;1.00;;;;;;5075483;28;20460;-78
2022/12/02 12:31:21;;;;;;;19.35;11.18;;;5.40;1.00;;;;;;5088129;28;20412;-78
2022/12/02 12:37:33;;;;;;;17.97;10.70;;;5.30;1.00;;;;;;5077995;28;20432;-77
2022/12/02 12:43:20;;;;;;;17.23;10.67;;;5.30;1.00;;;;;;5092486;28;20469;-86
2022/12/02 12:49:15;;;;;;;22.57;11.97;;;5.20;1.00;;;;;;5080747;28;20623;-86
2022/12/02 12:52:09;;;;;;;18.87;10.77;;;5.10;1.00;;;;;;5084459;28;20462;-86
2022/12/02 12:55:15;;;;;;;19.37;12.07;;;5.00;1.00;;;;;;5078406;28;20428;-86
2022/12/02 12:58:09;;;;;;;16.67;10.60;;;4.90;1.00;;;;;;5088617;28;20425;-86
2022/12/02 13:07:39;;;;;;;19.27;11.40;;;5.00;1.00;;;;;;5092621;28;20391;-79
2022/12/02 13:10:23;;;;;;;19.15;11.43;;;4.90;1.00;;;;;;5081922;28;20444;-80
2022/12/02 13:16:45;;;;;;;18.60;11.47;;;4.80;1.00;;;;;;5080974;28;20459;-84
2022/12/02 13:22:33;;;;;;;18.30;11.13;;;4.90;1.00;;;;;;5091067;28;20532;-85
2022/12/02 13:25:04;;;;;;;20.27;11.67;;;4.90;1.00;;;;;;5089247;28;20900;-81
2022/12/02 13:31:33;;;;;;;20.20;11.60;;;4.90;1.00;;;;;;5076624;28;20457;-85
2022/12/02 13:40:43;;;;;;;17.27;11.70;;;4.90;1.00;;;;;;5089729;28;20459;-85
2022/12/02 13:46:31;;;;;;;16.10;10.27;;;4.80;1.00;;;;;;5076264;28;20599;-84
2022/12/02 13:52:21;;;;;;;16.50;10.63;;;4.80;1.00;;;;;;5087451;28;20194;-86
2022/12/02 13:55:27;;;;;;;18.23;10.30;;;4.90;1.00;;;;;;5085807;28;20428;-86
2022/12/02 13:58:33;;;;;;;17.70;11.27;;;4.80;1.00;;;;;;5093937;28;20412;-87
2022/12/02 14:05:03;;;;;;;19.00;10.30;;;4.80;1.00;;;;;;5085819;28;20449;-86
2022/12/02 14:14:57;;;;;;;18.00;10.77;;;4.80;1.00;;;;;;5094701;28;20400;-88
2022/12/02 14:21:03;;;;;;;19.13;11.37;;;4.80;1.00;;;;;;5095104;28;20469;-86
2022/12/02 14:23:57;;;;;;;15.20;9.77;;;4.70;1.00;;;;;;5082225;28;20417;-87
2022/12/02 14:33:06;;;;;;;16.17;9.67;;;4.70;1.00;;;;;;5084050;28;20964;-82
2022/12/02 14:42:16;;;;;;;16.50;10.43;;;4.80;1.00;;;;;;5074608;28;20420;-84
2022/12/02 14:48:03;;;;;;;13.27;8.82;;;4.70;1.00;;;;;;5088279;28;20742;-81
2022/12/02 14:53:51;;;;;;;14.37;9.00;;;4.70;1.00;;;;;;5081900;28;20678;-82
2022/12/02 14:56:33;;;;;;;16.27;9.70;;;4.70;1.00;;;;;;5085099;28;20416;-82
2022/12/02 15:02:21;;;;;;;16.93;9.60;;;4.80;1.00;;;;;;5093082;28;20462;-81
2022/12/02 15:04:47;;;;;;;14.93;8.87;;;4.60;1.00;;;;;;5074746;28;20421;-81
2022/12/02 15:10:34;;;;;;;15.80;9.07;;;4.60;1.00;;;;;;5085836;28;20423;-80
2022/12/02 15:16:57;;;;;;;13.57;9.30;;;4.60;1.00;;;;;;5074914;28;20594;-87
2022/12/02 15:23:39;;;;;;;13.25;9.27;;;4.50;1.00;;;;;;5074706;28;20392;-88
2022/12/02 15:30:09;;;;;;;11.47;8.83;;;4.30;1.00;;;;;;5087855;28;20598;-87
2022/12/02 15:42:52;;;;;;;11.70;8.37;;;4.40;1.00;;;;;;5074717;28;20471;-80
2022/12/02 15:46:03;;;;;;;14.37;9.33;;;4.30;1.00;;;;;;5073954;28;20478;-87
2022/12/02 15:48:29;;;;;;;12.43;8.45;;;4.30;1.00;;;;;;5088330;28;20456;-84
2022/12/02 15:54:17;;;;;;;13.00;8.70;;;4.30;1.00;;;;;;5084270;28;20503;-84
2022/12/02 16:00:06;;;;;;;16.05;8.55;;;4.20;1.00;;;;;;5074923;28;20423;-88
2022/12/02 16:02:51;;;;;;;11.35;8.07;;;4.10;1.00;;;;;;5072448;28;20186;-88
2022/12/02 16:09:33;;;;;;;11.90;8.03;;;4.10;1.00;;;;;;5081448;28;20957;-87
2022/12/02 16:15:21;;;;;;;11.32;7.82;;;4.00;1.00;;;;;;5094141;28;20392;-81
2022/12/02 16:21:27;;;;;;;11.70;7.80;;;3.90;1.00;;;;;;5072969;28;20431;-80
2022/12/02 16:34:00;;;;;;;9.93;7.57;;;3.90;1.00;;;;;;5076908;28;20487;-89
2022/12/02 16:36:57;;;;;;;9.43;7.20;;;3.90;1.00;;;;;;5077045;28;20425;-89
2022/12/02 16:59:32;;;;;;;8.53;6.67;;;4.00;1.00;;;;;;5075145;28;20178;-84
2022/12/02 17:05:19;;;;;;;9.93;7.00;;;3.90;1.00;;;;;;5079595;28;20288;-81
2022/12/02 17:07:51;;;;;;;7.40;5.80;;;3.90;1.00;;;;;;5079363;28;20241;-83
2022/12/02 17:13:39;;;;;;;10.07;6.60;;;3.90;1.00;;;;;;5077302;28;20202;-71
2022/12/02 17:16:05;;;;;;;9.07;6.47;;;3.90;1.00;;;;;;5089687;28;20183;-70
2022/12/02 17:18:31;;;;;;;10.70;6.30;;;3.90;1.00;;;;;;5076559;28;20592;-71
2022/12/02 17:20:56;;;;;;;9.20;7.20;;;3.90;1.00;;;;;;5089110;28;20409;-71
2022/12/02 17:23:22;;;;;;;6.90;5.73;;;4.00;1.00;;;;;;5081887;28;20258;-71
2022/12/02 17:25:48;;;;;;;8.60;6.50;;;4.00;1.00;;;;;;5089240;28;20254;-71
2022/12/02 17:28:13;;;;;;;9.17;6.23;;;4.00;1.00;;;;;;5086966;28;20717;-71
2022/12/02 17:30:39;;;;;;;7.90;6.13;;;4.00;1.00;;;;;;5078130;28;20183;-71
2022/12/02 17:33:05;;;;;;;8.20;6.53;;;4.00;1.00;;;;;;5076111;28;20187;-71
2022/12/02 17:35:30;;;;;;;9.07;6.40;;;4.10;1.00;;;;;;5086917;28;20614;-71
2022/12/02 17:37:56;;;;;;;9.07;6.40;;;4.10;1.00;;;;;;5074016;28;20183;-70
2022/12/02 17:40:22;;;;;;;8.33;6.23;;;4.00;1.00;;;;;;5079681;28;20182;-71
2022/12/02 17:42:47;;;;;;;10.40;6.50;;;4.00;1.00;;;;;;5082906;28;20214;-71
2022/12/02 17:45:13;;;;;;;8.00;6.30;;;3.90;1.00;;;;;;5088818;28;20186;-71
2022/12/02 17:47:39;;;;;;;9.10;5.97;;;4.00;1.00;;;;;;5086834;28;20211;-71
2022/12/02 17:50:05;;;;;;;10.13;7.27;;;3.90;1.00;;;;;;5081509;28;20769;-71
2022/12/02 17:52:33;;;;;;;9.07;6.95;;;3.80;1.00;;;;;;5084079;28;20232;-71
2022/12/02 17:54:59;;;;;;;9.23;6.32;;;3.80;1.00;;;;;;5088396;28;20250;-71
2022/12/02 17:57:25;;;;;;;9.43;6.80;;;3.90;1.00;;;;;;5085900;28;20209;-71
2022/12/02 17:59:50;;;;;;;9.00;6.63;;;3.80;1.00;;;;;;5081363;28;20224;-71
2022/12/02 18:02:27;;;;;;;9.23;6.60;;;3.70;1.00;;;;;;5084585;28;20182;-72
2022/12/02 18:04:53;;;;;;;10.60;7.05;;;3.70;1.00;;;;;;5081962;28;20657;-71
2022/12/02 18:07:19;;;;;;;11.40;7.33;;;3.70;1.00;;;;;;5082943;28;20179;-72
2022/12/02 18:09:45;;;;;;;11.67;6.90;;;3.60;1.00;;;;;;5075552;28;20194;-72
2022/12/02 18:12:15;;;;;;;8.27;6.30;;;3.60;1.00;;;;;;5075305;28;20653;-71
2022/12/02 18:14:41;;;;;;;11.25;7.43;;;3.60;1.00;;;;;;5088644;28;20217;-72
2022/12/02 18:17:09;;;;;;;11.83;7.67;;;3.60;1.00;;;;;;5087191;28;20198;-72
2022/12/02 18:19:35;;;;;;;8.85;6.60;;;3.70;1.00;;;;;;5086323;28;20530;-71
2022/12/02 18:22:03;;;;;;;8.80;6.67;;;3.60;1.00;;;;;;5084695;28;20236;-72
2022/12/02 18:24:29;;;;;;;8.90;6.40;;;3.70;1.00;;;;;;5081740;28;20191;-71
2022/12/02 18:26:58;;;;;;;8.37;6.13;;;3.70;1.00;;;;;;5082738;28;20700;-72
2022/12/02 18:29:34;;;;;;;9.20;6.45;;;3.60;1.00;;;;;;5087930;28;20217;-72
2022/12/02 18:31:59;;;;;;;9.02;6.13;;;3.60;1.00;;;;;;5085816;28;20178;-71
2022/12/02 18:34:25;;;;;;;9.87;6.27;;;3.60;1.00;;;;;;5074631;28;20170;-70
2022/12/02 18:36:51;;;;;;;8.47;6.27;;;3.60;1.00;;;;;;5080868;28;20178;-72
2022/12/02 18:39:16;;;;;;;10.97;7.40;;;3.50;1.00;;;;;;5080648;28;20182;-71
2022/12/02 18:41:42;;;;;;;8.53;6.67;;;3.50;1.00;;;;;;5080666;28;20253;-71
2022/12/02 18:44:07;;;;;;;9.53;6.80;;;3.50;1.00;;;;;;5074228;28;20278;-71
2022/12/02 18:53:17;;;;;;;9.52;6.90;;;3.30;1.00;;;;;;5079067;28;20181;-87
2022/12/02 18:55:42;;;;;;;9.97;7.10;;;3.40;1.00;;;;;;5083287;28;20170;-88
2022/12/02 19:01:31;;;;;;;10.18;6.65;;;3.40;1.00;;;;;;5082969;28;20193;-82
2022/12/02 19:04:39;;;;;;;8.80;7.05;;;3.50;1.00;;;;;;5073853;28;20203;-79
2022/12/02 19:10:27;;;;;;;10.45;7.20;;;3.50;1.00;;;;;;5079896;28;20424;-79
2022/12/02 19:13:10;;;;;;;11.20;7.63;;;3.50;1.00;;;;;;5085722;28;20617;-79
2022/12/02 19:16:09;;;;;;;11.23;7.45;;;3.50;1.00;;;;;;5082613;28;20205;-79
2022/12/02 19:18:39;;;;;;;10.40;6.70;;;3.50;1.00;;;;;;5086247;28;20183;-87
2022/12/02 19:21:33;;;;;;;8.88;6.78;;;3.40;1.00;;;;;;5087646;28;20184;-84
2022/12/02 19:24:04;;;;;;;9.20;7.13;;;3.40;1.00;;;;;;5086783;28;20187;-87
2022/12/02 19:29:52;;;;;;;11.77;7.90;;;3.30;1.00;;;;;;5085203;28;20251;-83
2022/12/02 19:33:09;;;;;;;8.60;7.30;;;3.30;1.00;;;;;;5073439;28;20277;-85
2022/12/02 19:36:09;;;;;;;11.10;7.63;;;3.30;1.00;;;;;;5077631;28;20227;-84
2022/12/02 19:38:46;;;;;;;9.98;7.13;;;3.20;1.00;;;;;;5076175;28;20177;-84
2022/12/02 19:44:33;;;;;;;8.93;7.00;;;3.20;1.00;;;;;;5076727;28;20244;-85
2022/12/02 19:50:21;;;;;;;10.35;7.35;;;3.20;1.00;;;;;;5081093;28;20212;-77
2022/12/02 19:56:57;;;;;;;10.57;7.32;;;3.20;1.00;;;;;;5079297;28;20399;-77
2022/12/02 20:12:51;;;;;;;8.95;7.03;;;3.00;1.00;;;;;;5097437;28;20173;-78
2022/12/02 20:18:38;;;;;;;11.68;7.43;;;3.00;1.00;;;;;;5083973;28;20649;-85
2022/12/02 20:24:26;;;;;;;11.35;8.40;;;3.00;1.00;;;;;;5077538;28;20186;-85
2022/12/02 20:33:35;;;;;;;11.90;7.72;;;3.00;1.00;;;;;;5087000;28;20221;-84
2022/12/02 20:39:23;;;;;;;11.30;7.95;;;2.90;1.00;;;;;;5086972;28;20181;-84
2022/12/02 20:41:49;;;;;;;12.13;8.27;;;2.90;1.00;;;;;;5081794;28;20175;-85
2022/12/02 20:44:14;;;;;;;10.57;7.87;;;2.90;1.00;;;;;;5087625;28;20221;-84
2022/12/02 20:46:40;;;;;;;10.67;7.80;;;2.90;1.00;;;;;;5093240;28;20197;-84
2022/12/02 20:52:27;;;;;;;12.27;8.02;;;3.00;1.00;;;;;;5084082;28;20592;-77
2022/12/02 21:04:59;;;;;;;11.57;7.85;;;3.00;1.00;;;;;;5076805;28;20170;-77
2022/12/02 21:07:51;;;;;;;13.40;8.30;;;2.90;1.00;;;;;;5080976;28;20566;-77
2022/12/02 21:10:34;;;;;;;11.57;7.97;;;2.90;1.00;;;;;;5092079;28;20633;-77
2022/12/02 21:13:39;;;;;;;13.07;8.50;;;2.90;1.00;;;;;;5076420;28;20638;-77
2022/12/02 21:16:39;;;;;;;11.60;8.43;;;2.90;1.00;;;;;;5088916;28;20174;-78
2022/12/02 21:19:33;;;;;;;10.82;8.13;;;3.00;1.00;;;;;;5090015;28;20197;-85